Chattanooga, TN

8:13 PM EDT on August 30, 2015 (GMT -0400)
Coolidge Park | | Change Station
CLOSE
Current Station
Personal Weather Station
Location: Chattanooga, TN
Elevation: 673 ft
Nearby Weather Stations

Elev 673 ft 35.06 °N, 85.31 °W | Updated 37 seconds ago

Mostly Cloudy
Mostly Cloudy
74.7 °F
Feels Like 76 °F
N
0.0
Wind Variable Wind from SE
Gusts 0.0 mph

Today
High -- | Low -- °F
--% Chance of Precip.
Yesterday
High -- | Low -- °F
Precip. -- in
7:12 AM 8:10 PM
Full, 98% visible
Pressure 30.06 in
Visibility 10.0 miles
Clouds Mostly Cloudy 6000 ft
Mostly Cloudy 10000 ft
Mostly Cloudy 15000 ft
Mostly Cloudy 25000 ft
Heat Index 76 °F
Dew Point 64 °F
Humidity 70%
Rainfall 0.00 in
Snow Depth Not available.
UV 0.0 out of 12
Pollen 6.10 out of 12
Air Quality Not available.
Flu Activity Not available.
METAR KCHA 302353Z 13003KT 10SM BKN060 BKN100 BKN150 BKN250 24/19 A3008 RMK AO2 SLP178 T02440189 10272 20244 55005
Pressure 30.06 in
Visibility 10.0 miles
Clouds Mostly Cloudy 6000 ft
Mostly Cloudy 10000 ft
Mostly Cloudy 15000 ft
Mostly Cloudy 25000 ft
Heat Index 76 °F
Dew Point 64 °F
Humidity 70%
Rainfall 0.00 in
Snow Depth Not available.
UV 0.0 out of 12
Pollen 6.10 out of 12
Air Quality Not available.
Flu Activity Not available.
METAR KCHA 302353Z 13003KT 10SM BKN060 BKN100 BKN150 BKN250 24/19 A3008 RMK AO2 SLP178 T02440189 10272 20244 55005

10-Day Weather Forecast

×

Almanac

Astronomy

Aug. 30, 2015 Rise Set
Actual Time
Civil Twilight
Nautical Twilight
Astronomical Twilight
Moon
Length of Visible Light
Length of Day
Tomorrow will be .
, % of the Moon is Illuminated

Today's Extremes

State Highs State Lows

Community

WunderPhotos

Upload Photos

1,851,100 photos uploaded!

WunderBlogs® & News

Nearby

Air Quality

  Air Quality AQ Index Pollutant
Not available.

Snow Depth

Station Depth Elevation

Earthquake Activity

City Distance Mag. Time & Date
Minimum magnitude displayed is 2.5.

Coastal Water Temperatures

Place Temperature

Stations

Nearby Weather Stations

Station Location Temp. Windchill Dew Point Humidity Wind Precip. Elev Updated Type